createdAt,value
2019-05-10T00:00:33.939Z,4.45
2019-05-10T00:03:20.439Z,8.55
2019-05-10T00:06:06.742Z,3.77
2019-05-10T00:08:46.359Z,6.65
2019-05-10T00:11:21.284Z,4.53
2019-05-10T00:14:07.374Z,4.12
2019-05-10T00:16:35.709Z,4.37
2019-05-10T00:19:03.945Z,6.75
2019-05-10T00:21:32.206Z,6.67
2019-05-10T00:24:00.397Z,4.47
2019-05-10T00:26:28.615Z,7.78
2019-05-10T00:28:56.855Z,5.80
2019-05-10T00:31:25.086Z,5.28
2019-05-10T00:33:53.303Z,6.15
2019-05-10T00:36:21.558Z,6.92
2019-05-10T00:38:49.781Z,6.28
2019-05-10T00:41:18.014Z,6.62
2019-05-10T00:43:46.243Z,7.65
2019-05-10T00:46:14.470Z,6.30
2019-05-10T00:48:42.701Z,9.95
2019-05-10T00:51:10.973Z,6.12
2019-05-10T00:53:39.190Z,6.00
2019-05-10T00:56:07.423Z,7.70
2019-05-10T00:58:35.658Z,9.63
2019-05-10T01:01:03.882Z,5.95
2019-05-10T01:03:32.094Z,8.45
2019-05-10T01:06:00.326Z,5.92
2019-05-10T01:08:28.544Z,8.85
2019-05-10T01:10:56.757Z,7.97
2019-05-10T01:13:24.988Z,8.33
2019-05-10T01:15:53.206Z,6.47
2019-05-10T01:18:21.435Z,7.22
2019-05-10T01:20:49.644Z,4.78
2019-05-10T01:23:17.984Z,9.38
2019-05-10T01:25:46.237Z,5.67
2019-05-10T01:28:14.489Z,7.22
2019-05-10T01:30:42.831Z,7.42
2019-05-10T01:33:11.126Z,7.05
2019-05-10T01:35:39.364Z,4.80
2019-05-10T01:38:07.587Z,10.13
2019-05-10T01:40:35.823Z,5.83
2019-05-10T01:43:04.066Z,7.80
2019-05-10T01:45:32.276Z,6.60
2019-05-10T01:48:00.510Z,7.58
2019-05-10T01:50:28.741Z,13.53
2019-05-10T01:52:56.989Z,11.35
2019-05-10T01:55:25.206Z,13.70
2019-05-10T01:57:53.418Z,9.30
2019-05-10T02:00:21.642Z,11.28
2019-05-10T02:02:49.858Z,5.53
2019-05-10T02:05:18.095Z,7.08
2019-05-10T02:07:46.350Z,7.58
2019-05-10T02:10:14.566Z,6.58
2019-05-10T02:12:42.795Z,11.05
2019-05-10T02:15:11.031Z,8.83
2019-05-10T02:17:39.245Z,8.33
2019-05-10T02:20:07.464Z,11.25
2019-05-10T02:22:35.740Z,7.33
2019-05-10T02:25:05.321Z,9.90
2019-05-10T02:27:33.530Z,7.37
2019-05-10T02:30:01.932Z,8.68
2019-05-10T02:32:30.169Z,7.97
2019-05-10T02:34:58.401Z,9.95
2019-05-10T02:37:26.623Z,9.58
2019-05-10T02:39:54.856Z,11.08
2019-05-10T02:42:23.065Z,7.30
2019-05-10T02:44:51.441Z,7.33
2019-05-10T02:47:19.759Z,6.40
2019-05-10T02:49:47.998Z,5.40
2019-05-10T02:52:16.253Z,8.15
2019-05-10T02:54:44.457Z,6.25
2019-05-10T02:57:12.727Z,10.70
2019-05-10T02:59:41.433Z,8.33
2019-05-10T03:02:09.641Z,8.25
2019-05-10T03:04:37.868Z,12.90
2019-05-10T03:07:06.227Z,6.37
2019-05-10T03:09:35.315Z,12.23
2019-05-10T03:12:20.997Z,7.17
2019-05-10T03:14:51.977Z,10.32
2019-05-10T03:17:20.238Z,10.40
2019-05-10T03:19:50.155Z,9.93
2019-05-10T03:22:18.380Z,9.00
2019-05-10T03:24:46.615Z,11.45
2019-05-10T03:27:14.817Z,7.20
2019-05-10T03:29:43.208Z,11.57
2019-05-10T03:32:11.506Z,11.38
2019-05-10T03:34:39.726Z,9.68
2019-05-10T03:37:07.951Z,5.80
2019-05-10T03:39:36.171Z,13.88
2019-05-10T03:42:04.417Z,11.53
2019-05-10T03:44:32.641Z,9.08
2019-05-10T03:47:00.928Z,9.95
2019-05-10T03:49:29.138Z,7.58
2019-05-10T03:51:57.403Z,10.58
2019-05-10T03:54:25.610Z,5.87
2019-05-10T03:57:11.224Z,7.40
2019-05-10T03:59:23.870Z,9.58
2019-05-10T04:01:52.081Z,10.63
2019-05-10T04:04:20.337Z,10.48
2019-05-10T04:06:48.581Z,6.28
2019-05-10T04:09:16.779Z,7.92
2019-05-10T04:11:44.990Z,9.30
2019-05-10T04:14:13.218Z,7.78
2019-05-10T04:16:41.416Z,10.55
2019-05-10T04:19:09.642Z,9.55
2019-05-10T04:21:37.843Z,9.88
2019-05-10T04:24:06.056Z,6.67
2019-05-10T04:26:34.263Z,12.45
2019-05-10T04:29:02.473Z,10.65
2019-05-10T04:31:30.689Z,7.72
2019-05-10T04:33:58.901Z,8.20
2019-05-10T04:36:27.133Z,11.38
2019-05-10T04:38:55.333Z,6.40
2019-05-10T04:41:23.553Z,7.67
2019-05-10T04:43:51.770Z,9.60
2019-05-10T04:46:19.980Z,6.28
2019-05-10T04:48:48.198Z,8.95
2019-05-10T04:51:16.502Z,7.10
2019-05-10T04:53:44.724Z,12.28
2019-05-10T04:56:12.995Z,7.90
2019-05-10T04:58:41.229Z,6.10
2019-05-10T05:01:09.445Z,5.10
2019-05-10T05:03:37.663Z,9.78
2019-05-10T05:06:05.863Z,4.37
2019-05-10T05:08:34.083Z,5.05
2019-05-10T05:11:02.285Z,8.25
2019-05-10T05:13:30.491Z,9.53
2019-05-10T05:15:58.705Z,9.25
2019-05-10T05:18:26.918Z,7.53
2019-05-10T05:20:55.146Z,10.30
2019-05-10T05:23:23.353Z,5.55
2019-05-10T05:25:51.597Z,6.40
2019-05-10T05:28:23.136Z,9.28
2019-05-10T05:30:49.740Z,8.53
2019-05-10T05:33:17.953Z,9.90
2019-05-10T05:35:46.158Z,9.38
2019-05-10T05:38:14.390Z,5.83
2019-05-10T05:40:42.614Z,10.90
2019-05-10T05:43:10.830Z,7.85
2019-05-10T05:45:39.043Z,8.00
2019-05-10T05:48:07.287Z,5.08
2019-05-10T05:50:36.088Z,7.28
2019-05-10T05:53:04.294Z,11.35
2019-05-10T05:55:32.509Z,8.85
2019-05-10T05:58:05.048Z,9.65
2019-05-10T06:00:30.653Z,8.38
2019-05-10T06:02:58.871Z,6.30
2019-05-10T06:05:34.144Z,9.15
2019-05-10T06:07:57.055Z,9.85
2019-05-10T06:10:25.245Z,7.58
2019-05-10T06:12:53.470Z,7.50
2019-05-10T06:15:23.034Z,6.28
2019-05-10T06:17:57.343Z,10.15
2019-05-10T06:20:21.594Z,6.78
2019-05-10T06:23:05.872Z,9.75
2019-05-10T06:25:37.880Z,8.15
2019-05-10T06:27:49.693Z,9.50
2019-05-10T06:30:18.187Z,4.60
2019-05-10T06:32:46.466Z,6.17
2019-05-10T06:35:19.579Z,7.03
2019-05-10T06:37:44.651Z,5.30
2019-05-10T06:40:12.864Z,6.75
2019-05-10T06:42:41.086Z,6.30
2019-05-10T06:45:14.773Z,9.23
2019-05-10T06:47:42.163Z,7.05
2019-05-10T06:50:09.178Z,6.55
2019-05-10T06:52:37.393Z,9.58
2019-05-10T06:55:06.863Z,6.85
2019-05-10T06:57:35.076Z,7.20
2019-05-10T07:00:06.830Z,6.28
2019-05-10T07:02:35.441Z,6.40
2019-05-10T07:05:15.740Z,10.85
2019-05-10T07:07:44.652Z,7.87
2019-05-10T07:10:18.562Z,5.75
2019-05-10T07:12:41.597Z,4.15
2019-05-10T07:15:09.837Z,9.20
2019-05-10T07:17:45.620Z,7.00
2019-05-10T07:20:08.031Z,9.30
2019-05-10T07:22:36.240Z,6.62
2019-05-10T07:25:07.650Z,7.45
2019-05-10T07:27:38.192Z,7.37
2019-05-10T07:30:06.575Z,6.03
2019-05-10T07:32:34.799Z,7.03
2019-05-10T07:35:03.678Z,7.53
2019-05-10T07:37:31.897Z,5.75
2019-05-10T07:40:03.283Z,4.83
2019-05-10T07:42:30.077Z,7.85
2019-05-10T07:44:58.294Z,12.68
2019-05-10T07:47:30.365Z,7.47
2019-05-10T07:49:56.458Z,4.67
2019-05-10T07:52:24.679Z,6.65
2019-05-10T07:54:52.889Z,8.45
2019-05-10T07:57:24.855Z,7.92
2019-05-10T07:59:51.467Z,6.95
2019-05-10T08:02:19.873Z,4.95
2019-05-10T08:04:51.363Z,7.97
2019-05-10T08:07:18.600Z,3.90
2019-05-10T08:09:48.771Z,7.50
2019-05-10T08:12:19.293Z,9.73
2019-05-10T08:14:51.878Z,14.50
2019-05-10T08:17:19.056Z,9.00
2019-05-10T08:19:46.705Z,4.83
2019-05-10T08:22:15.191Z,5.35
2019-05-10T08:24:44.553Z,5.60
2019-05-10T08:27:14.862Z,5.92
2019-05-10T08:29:43.359Z,4.90
2019-05-10T08:32:12.824Z,7.20
2019-05-10T08:34:51.765Z,7.40
2019-05-10T08:37:12.812Z,8.13
2019-05-10T08:39:45.373Z,6.25
2019-05-10T08:42:30.528Z,4.67
2019-05-10T08:44:42.735Z,3.60
2019-05-10T08:47:15.726Z,5.58
2019-05-10T08:49:52.389Z,2.87
2019-05-10T08:52:12.166Z,5.15
2019-05-10T08:54:42.278Z,8.30
2019-05-10T08:57:17.904Z,2.37
2019-05-10T08:59:42.672Z,4.85
2019-05-10T09:02:12.564Z,3.40
2019-05-10T09:04:43.638Z,6.97
2019-05-10T09:07:11.913Z,5.00
2019-05-10T09:09:45.584Z,3.58
2019-05-10T09:12:12.319Z,3.72
2019-05-10T09:14:42.439Z,2.50
2019-05-10T09:17:14.799Z,3.80
2019-05-10T09:19:41.758Z,4.92
2019-05-10T09:22:12.353Z,3.83
2019-05-10T09:24:41.004Z,3.40
2019-05-10T09:27:09.709Z,4.42
2019-05-10T09:29:37.934Z,3.22
2019-05-10T09:32:06.801Z,4.40
2019-05-10T09:34:35.182Z,2.33
2019-05-10T09:37:07.997Z,5.83
2019-05-10T09:39:33.318Z,3.40
2019-05-10T09:42:08.486Z,2.83
2019-05-10T09:44:32.970Z,3.40
2019-05-10T09:47:01.920Z,3.00
2019-05-10T09:49:33.221Z,3.62
2019-05-10T09:52:04.463Z,6.08
2019-05-10T09:54:33.566Z,2.83
2019-05-10T09:57:01.166Z,4.42
2019-05-10T09:59:29.381Z,8.03
2019-05-10T10:01:57.603Z,2.62
2019-05-10T10:04:27.985Z,9.80
2019-05-10T10:06:57.563Z,4.67
2019-05-10T10:09:33.658Z,3.95
2019-05-10T10:12:00.825Z,3.58
2019-05-10T10:14:28.140Z,3.30
2019-05-10T10:17:02.071Z,3.70
2019-05-10T10:19:27.623Z,3.87
2019-05-10T10:21:57.470Z,2.22
2019-05-10T10:24:25.378Z,2.40
2019-05-10T10:26:54.401Z,5.10
2019-05-10T10:29:23.510Z,2.60
2019-05-10T10:31:55.769Z,7.22
2019-05-10T10:34:21.700Z,2.50
2019-05-10T10:36:49.925Z,1.92
2019-05-10T10:39:23.003Z,6.40
2019-05-10T10:41:50.243Z,6.95
2019-05-10T10:44:18.229Z,4.58
2019-05-10T10:46:48.035Z,5.05
2019-05-10T10:49:17.801Z,5.35
2019-05-10T10:51:47.235Z,4.58
2019-05-10T10:54:17.620Z,5.72
2019-05-10T10:56:48.087Z,7.33
2019-05-10T10:59:18.176Z,4.83
2019-05-10T11:01:50.334Z,4.65
2019-05-10T11:04:16.366Z,3.77
2019-05-10T11:06:44.718Z,2.60
2019-05-10T11:09:12.941Z,6.80
2019-05-10T11:11:44.500Z,6.67
2019-05-10T11:14:11.233Z,5.35
2019-05-10T11:16:41.250Z,4.78
2019-05-10T11:19:14.117Z,3.30
2019-05-10T11:21:41.527Z,4.28
2019-05-10T11:24:16.788Z,4.78
2019-05-10T11:26:40.952Z,3.55
2019-05-10T11:29:13.915Z,4.37
2019-05-10T11:31:41.338Z,4.53
2019-05-10T11:34:09.138Z,3.75
2019-05-10T11:36:40.467Z,8.60
2019-05-10T11:39:24.818Z,4.70
2019-05-10T11:41:38.093Z,3.60
2019-05-10T11:44:08.935Z,2.87
2019-05-10T11:46:36.256Z,6.62
2019-05-10T11:49:04.476Z,5.47
2019-05-10T11:51:32.808Z,6.15
2019-05-10T11:54:01.010Z,3.98
2019-05-10T11:56:32.048Z,4.65
2019-05-10T11:59:02.190Z,4.47
2019-05-10T12:01:29.119Z,2.95
2019-05-10T12:03:57.337Z,2.95
2019-05-10T12:06:25.621Z,4.25
2019-05-10T12:09:00.884Z,3.77
2019-05-10T12:11:32.922Z,5.00
2019-05-10T12:13:57.538Z,4.90
2019-05-10T12:16:23.798Z,2.85
2019-05-10T12:19:16.953Z,2.02
2019-05-10T12:21:22.023Z,2.55
2019-05-10T12:23:55.571Z,3.60
2019-05-10T12:28:51.055Z,2.95
2019-05-10T12:31:21.097Z,1.82
2019-05-10T12:33:50.643Z,5.90
2019-05-10T12:36:23.514Z,1.67
2019-05-10T12:38:49.031Z,4.37
2019-05-10T12:41:17.234Z,3.33
2019-05-10T12:43:48.408Z,2.15
2019-05-10T12:46:15.404Z,3.83
2019-05-10T12:48:43.633Z,2.33
2019-05-10T12:51:15.989Z,3.42
2019-05-10T12:53:47.537Z,4.10
2019-05-10T12:56:11.782Z,3.87
2019-05-10T12:58:40.004Z,7.92
2019-05-10T13:01:08.218Z,1.05
2019-05-10T13:03:36.442Z,5.53
2019-05-10T13:06:04.671Z,3.90
2019-05-10T13:08:32.880Z,4.15
2019-05-10T13:11:01.117Z,3.90
2019-05-10T13:13:29.989Z,3.15
2019-05-10T13:15:58.538Z,2.65
2019-05-10T13:18:49.226Z,5.12
2019-05-10T13:20:56.724Z,3.42
2019-05-10T13:23:24.927Z,4.40
2019-05-10T13:25:53.165Z,3.77
2019-05-10T13:28:21.376Z,5.42
2019-05-10T13:30:49.582Z,6.47
2019-05-10T13:33:28.449Z,5.92
2019-05-10T13:35:50.709Z,2.75
2019-05-10T13:38:17.707Z,3.10
2019-05-10T13:40:47.724Z,1.92
2019-05-10T13:43:17.187Z,3.47
2019-05-10T13:45:45.819Z,2.60
2019-05-10T13:48:14.038Z,3.02
2019-05-10T13:50:42.265Z,4.80
2019-05-10T13:53:19.703Z,3.12
2019-05-10T13:55:40.453Z,3.47
2019-05-10T13:58:08.661Z,7.08
2019-05-10T14:00:36.874Z,3.75
2019-05-10T14:03:11.206Z,11.15
2019-05-10T14:05:35.061Z,4.85
2019-05-10T14:08:03.295Z,3.67
2019-05-10T14:10:31.521Z,2.90
2019-05-10T14:13:02.578Z,4.08
2019-05-10T14:15:29.683Z,4.08
2019-05-10T14:17:57.920Z,4.25
2019-05-10T14:20:27.651Z,4.95
2019-05-10T14:22:58.706Z,2.27
2019-05-10T14:25:29.369Z,9.20
2019-05-10T14:27:56.040Z,4.95
2019-05-10T14:30:24.262Z,4.20
2019-05-10T14:32:52.467Z,3.37
2019-05-10T14:35:22.643Z,3.00
2019-05-10T14:37:50.699Z,4.37
2019-05-10T14:40:27.630Z,6.17
2019-05-10T14:42:48.904Z,5.90
2019-05-10T14:45:17.343Z,2.92
2019-05-10T14:47:49.942Z,3.45
2019-05-10T14:50:19.622Z,3.35
2019-05-10T14:52:45.553Z,2.20
2019-05-10T14:55:13.759Z,0.90
2019-05-10T14:57:41.997Z,5.17
2019-05-10T15:00:10.264Z,4.37
2019-05-10T15:02:38.512Z,4.58
2019-05-10T15:05:15.881Z,4.30
2019-05-10T15:07:40.475Z,2.77
2019-05-10T15:10:08.702Z,1.25
2019-05-10T15:12:36.981Z,4.83
2019-05-10T15:15:06.168Z,5.05
2019-05-10T15:17:34.383Z,3.60
2019-05-10T15:20:03.053Z,2.77
2019-05-10T15:22:31.262Z,6.62
2019-05-10T15:24:59.562Z,9.83
2019-05-10T15:27:27.786Z,204.87
2019-05-10T15:29:58.487Z,181.63
2019-05-10T15:32:25.970Z,21.60
2019-05-10T15:35:06.303Z,34.33
2019-05-10T15:37:24.162Z,86.90
2019-05-10T15:39:52.390Z,152.27
2019-05-10T15:42:22.039Z,154.68
2019-05-10T15:44:50.439Z,414.17
2019-05-10T15:47:20.361Z,215.97
2019-05-10T15:49:48.630Z,237.75
2019-05-10T15:52:18.101Z,23.47
2019-05-10T15:54:47.196Z,34.27
2019-05-10T15:57:20.344Z,13.30
2019-05-10T15:59:45.625Z,297.20
2019-05-10T16:02:13.855Z,70.57
2019-05-10T16:04:42.104Z,5.62
2019-05-10T16:07:14.576Z,3.50
2019-05-10T16:09:40.278Z,2.42
2019-05-10T16:12:08.844Z,4.33
2019-05-10T16:14:39.095Z,2.25
2019-05-10T16:17:10.541Z,3.10
2019-05-10T16:19:37.101Z,4.33
2019-05-10T16:22:05.315Z,3.22
2019-05-10T16:24:33.575Z,2.72
2019-05-10T16:27:01.969Z,3.20
2019-05-10T16:29:33.832Z,2.75
2019-05-10T16:32:00.265Z,4.67
2019-05-10T16:34:32.474Z,4.92
2019-05-10T16:36:58.401Z,3.35
2019-05-10T16:39:26.629Z,3.72
2019-05-10T16:41:54.843Z,5.72
2019-05-10T16:44:23.059Z,2.42
2019-05-10T16:46:51.285Z,3.17
2019-05-10T16:49:19.491Z,4.20
2019-05-10T16:51:49.892Z,3.02
2019-05-10T16:54:24.363Z,4.12
2019-05-10T16:56:51.625Z,3.45
2019-05-10T16:59:17.614Z,5.50
2019-05-10T17:01:45.827Z,3.52
2019-05-10T17:04:14.053Z,4.15
2019-05-10T17:06:42.261Z,3.08
2019-05-10T17:09:18.133Z,5.42
2019-05-10T17:11:41.504Z,2.65
2019-05-10T17:14:12.541Z,13.65
2019-05-10T17:16:40.314Z,2.87
2019-05-10T17:19:11.489Z,8.05
2019-05-10T17:21:39.701Z,5.45
2019-05-10T17:24:07.925Z,1.98
2019-05-10T17:26:36.137Z,2.08
2019-05-10T17:29:07.177Z,9.05
2019-05-10T17:31:34.302Z,2.72
2019-05-10T17:34:02.534Z,2.85
2019-05-10T17:36:30.749Z,5.28
2019-05-10T17:38:58.989Z,3.67
2019-05-10T17:41:27.201Z,3.62
2019-05-10T17:43:55.425Z,5.53
2019-05-10T17:46:23.653Z,6.22
2019-05-10T17:48:51.911Z,4.97
2019-05-10T17:51:20.161Z,3.35
2019-05-10T17:53:48.479Z,5.58
2019-05-10T17:56:18.323Z,3.45
2019-05-10T17:58:46.564Z,2.25
2019-05-10T18:01:14.782Z,4.55
2019-05-10T18:03:42.991Z,4.10
2019-05-10T18:06:23.073Z,4.80
2019-05-10T18:08:41.173Z,3.08
2019-05-10T18:11:09.399Z,4.53
2019-05-10T18:13:40.849Z,7.75
2019-05-10T18:16:09.515Z,4.70
2019-05-10T18:18:46.462Z,11.08
2019-05-10T18:21:07.443Z,3.92
2019-05-10T18:23:35.681Z,5.30
2019-05-10T18:26:03.897Z,3.52
2019-05-10T18:28:32.181Z,3.17
2019-05-10T18:31:00.397Z,3.42
2019-05-10T18:33:28.638Z,9.58
2019-05-10T18:35:56.854Z,7.62
2019-05-10T18:38:25.090Z,3.47
2019-05-10T18:40:53.120Z,5.35
2019-05-10T18:43:21.349Z,2.42
2019-05-10T18:45:49.554Z,6.10
2019-05-10T18:48:17.789Z,5.87
2019-05-10T18:50:47.354Z,4.40
2019-05-10T18:53:15.716Z,3.07
2019-05-10T18:55:43.947Z,8.73
2019-05-10T18:58:12.145Z,3.72
2019-05-10T19:00:40.425Z,3.98
2019-05-10T19:03:08.681Z,9.10
2019-05-10T19:05:36.917Z,6.75
2019-05-10T19:08:05.937Z,5.37
2019-05-10T19:10:34.632Z,3.67
2019-05-10T19:13:04.806Z,5.75
2019-05-10T19:15:32.832Z,5.03
2019-05-10T19:18:01.035Z,5.03
2019-05-10T19:20:29.264Z,7.47
2019-05-10T19:22:57.498Z,3.77
2019-05-10T19:25:25.710Z,5.28
2019-05-10T19:27:53.937Z,4.42
2019-05-10T19:30:22.575Z,12.60
2019-05-10T19:32:55.856Z,4.83
2019-05-10T19:35:20.894Z,10.28
2019-05-10T19:37:49.133Z,4.17
2019-05-10T19:40:17.363Z,6.90
2019-05-10T19:42:49.130Z,10.98
2019-05-10T19:45:19.284Z,5.30
2019-05-10T19:47:49.815Z,8.53
2019-05-10T19:50:15.437Z,5.42
2019-05-10T19:52:43.757Z,7.00
2019-05-10T19:55:13.018Z,5.20
2019-05-10T19:57:41.927Z,5.75
2019-05-10T20:00:10.146Z,4.08
2019-05-10T20:02:38.357Z,9.60
2019-05-10T20:05:06.599Z,9.05
2019-05-10T20:07:45.399Z,5.70
2019-05-10T20:10:07.850Z,3.47
2019-05-10T20:12:36.130Z,2.98
2019-05-10T20:15:05.994Z,5.95
2019-05-10T20:17:34.469Z,6.45
2019-05-10T20:20:03.689Z,4.12
2019-05-10T20:22:31.917Z,3.55
2019-05-10T20:25:00.128Z,4.62
2019-05-10T20:27:28.351Z,10.63
2019-05-10T20:29:56.658Z,5.45
2019-05-10T20:32:24.883Z,4.90
2019-05-10T20:34:53.097Z,4.92
2019-05-10T20:37:21.319Z,6.92
2019-05-10T20:39:49.517Z,4.62
2019-05-10T20:42:17.737Z,7.97
2019-05-10T20:44:45.946Z,4.92
2019-05-10T20:47:14.168Z,6.47
2019-05-10T20:49:42.384Z,6.95
2019-05-10T20:52:10.640Z,5.35
2019-05-10T20:54:38.823Z,8.83
2019-05-10T20:57:07.048Z,4.17
2019-05-10T20:59:35.250Z,5.85
2019-05-10T21:02:03.592Z,7.92
2019-05-10T21:04:33.467Z,14.63
2019-05-10T21:07:01.739Z,10.30
2019-05-10T21:09:29.986Z,9.58
2019-05-10T21:11:59.038Z,9.00
2019-05-10T21:14:28.986Z,12.47
2019-05-10T21:16:57.208Z,7.83
2019-05-10T21:19:25.545Z,9.30
2019-05-10T21:21:53.774Z,7.70
2019-05-10T21:24:22.672Z,7.92
2019-05-10T21:26:50.906Z,8.93
2019-05-10T21:29:19.117Z,6.50
2019-05-10T21:31:47.345Z,5.00
2019-05-10T21:34:15.658Z,8.23
2019-05-10T21:36:43.876Z,8.03
2019-05-10T21:39:12.110Z,5.33
2019-05-10T21:41:40.349Z,5.40
2019-05-10T21:44:08.559Z,10.00
2019-05-10T21:46:36.793Z,10.10
2019-05-10T21:49:05.037Z,10.82
2019-05-10T21:51:33.284Z,8.53
2019-05-10T21:54:01.511Z,8.40
2019-05-10T21:56:29.730Z,7.60
2019-05-10T21:58:57.953Z,7.37
2019-05-10T22:01:26.162Z,7.10
2019-05-10T22:03:54.389Z,11.03
2019-05-10T22:06:22.623Z,9.05
2019-05-10T22:08:50.858Z,8.63
2019-05-10T22:11:19.246Z,6.40
2019-05-10T22:13:47.551Z,6.05
2019-05-10T22:16:15.775Z,6.10
2019-05-10T22:18:44.022Z,7.00
2019-05-10T22:21:12.241Z,4.10
2019-05-10T22:23:40.492Z,9.23
2019-05-10T22:26:08.728Z,7.12
2019-05-10T22:28:36.950Z,6.42
2019-05-10T22:31:05.182Z,5.65
2019-05-10T22:33:33.397Z,7.72
2019-05-10T22:36:01.708Z,5.30
2019-05-10T22:38:29.934Z,5.70
2019-05-10T22:40:58.162Z,6.15
2019-05-10T22:43:26.366Z,9.05
2019-05-10T22:45:54.666Z,8.00
2019-05-10T22:48:22.923Z,8.68
2019-05-10T22:50:51.141Z,5.45
2019-05-10T22:53:19.360Z,4.28
2019-05-10T22:55:47.583Z,8.45
2019-05-10T22:58:15.806Z,5.70
2019-05-10T23:00:44.109Z,5.83
2019-05-10T23:03:12.337Z,3.95
2019-05-10T23:05:40.551Z,4.97
2019-05-10T23:08:08.795Z,9.93
2019-05-10T23:10:37.011Z,9.80
2019-05-10T23:13:05.262Z,4.72
2019-05-10T23:15:33.470Z,4.58
2019-05-10T23:18:01.686Z,4.83
2019-05-10T23:20:29.914Z,5.42
2019-05-10T23:22:58.134Z,5.55
2019-05-10T23:25:26.364Z,4.62
2019-05-10T23:27:54.604Z,6.78
2019-05-10T23:30:22.810Z,8.30
2019-05-10T23:32:51.047Z,6.35
2019-05-10T23:35:19.266Z,9.05
2019-05-10T23:37:47.486Z,8.28
2019-05-10T23:40:15.704Z,10.53
2019-05-10T23:42:43.947Z,5.70
2019-05-10T23:45:13.793Z,7.25
2019-05-10T23:47:42.014Z,9.50
2019-05-10T23:50:10.231Z,6.58
2019-05-10T23:52:38.433Z,7.33
2019-05-10T23:55:06.827Z,6.90
2019-05-10T23:57:35.050Z,6.40
